createdAt,value
2019-05-09T00:02:15.489Z,15.60
2019-05-09T00:04:45.088Z,15.46
2019-05-09T00:07:14.696Z,15.37
2019-05-09T00:09:44.285Z,15.25
2019-05-09T00:12:14.321Z,15.15
2019-05-09T00:14:44.063Z,15.12
2019-05-09T00:17:14.229Z,15.12
2019-05-09T00:19:44.023Z,15.19
2019-05-09T00:22:13.923Z,15.23
2019-05-09T00:24:44.723Z,15.32
2019-05-09T00:27:14.466Z,15.44
2019-05-09T00:29:48.800Z,15.50
2019-05-09T00:32:26.265Z,15.52
2019-05-09T00:34:57.496Z,15.53
2019-05-09T00:37:44.843Z,15.51
2019-05-09T00:40:14.519Z,15.51
2019-05-09T00:42:44.226Z,15.49
2019-05-09T00:45:18.226Z,15.51
2019-05-09T00:47:47.817Z,15.49
2019-05-09T00:50:17.427Z,15.49
2019-05-09T00:52:47.013Z,15.46
2019-05-09T00:55:16.625Z,15.47
2019-05-09T00:57:46.221Z,15.51
2019-05-09T01:00:17.905Z,15.52
2019-05-09T01:02:47.508Z,15.53
2019-05-09T01:05:17.162Z,15.53
2019-05-09T01:07:46.730Z,15.49
2019-05-09T01:10:16.642Z,15.51
2019-05-09T01:12:46.242Z,15.53
2019-05-09T01:15:16.557Z,15.50
2019-05-09T01:17:46.158Z,15.49
2019-05-09T01:20:16.586Z,15.49
2019-05-09T01:22:46.202Z,15.43
2019-05-09T01:25:16.043Z,15.43
2019-05-09T01:27:45.642Z,15.39
2019-05-09T01:30:15.656Z,15.31
2019-05-09T01:33:05.035Z,15.26
2019-05-09T01:35:34.654Z,15.28
2019-05-09T01:38:04.876Z,15.24
2019-05-09T01:40:34.859Z,15.24
2019-05-09T01:43:04.663Z,15.23
2019-05-09T01:45:34.391Z,15.22
2019-05-09T01:48:04.073Z,15.09
2019-05-09T01:50:34.114Z,15.08
2019-05-09T01:53:04.096Z,15.06
2019-05-09T01:55:53.840Z,15.00
2019-05-09T01:58:23.305Z,14.96
2019-05-09T02:00:53.998Z,14.93
2019-05-09T02:03:23.857Z,14.87
2019-05-09T02:05:53.460Z,14.86
2019-05-09T02:08:23.740Z,14.89
2019-05-09T02:10:54.311Z,14.90
2019-05-09T02:13:23.896Z,14.87
2019-05-09T02:15:59.101Z,14.86
2019-05-09T02:18:33.381Z,14.88
2019-05-09T02:21:04.029Z,14.88
2019-05-09T02:23:34.022Z,14.93
2019-05-09T02:26:04.074Z,14.94
2019-05-09T02:28:34.262Z,14.97
2019-05-09T02:31:05.290Z,15.00
2019-05-09T02:33:35.178Z,15.03
2019-05-09T02:36:04.789Z,15.05
2019-05-09T02:38:34.427Z,15.07
2019-05-09T02:41:03.992Z,15.08
2019-05-09T02:43:33.581Z,15.08
2019-05-09T02:46:05.108Z,15.15
2019-05-09T02:48:34.678Z,15.19
2019-05-09T02:51:04.281Z,15.29
2019-05-09T02:53:33.868Z,15.29
2019-05-09T02:56:03.480Z,15.31
2019-05-09T02:58:34.714Z,15.24
2019-05-09T03:01:09.344Z,15.12
2019-05-09T03:03:40.500Z,15.09
2019-05-09T03:06:10.115Z,15.08
2019-05-09T03:08:39.718Z,15.11
2019-05-09T03:11:10.078Z,15.16
2019-05-09T03:13:39.834Z,15.18
2019-05-09T03:16:11.062Z,15.22
2019-05-09T03:18:40.830Z,15.21
2019-05-09T03:21:12.082Z,15.24
2019-05-09T03:23:41.678Z,15.23
2019-05-09T03:26:12.925Z,15.26
2019-05-09T03:28:42.284Z,15.26
2019-05-09T03:31:13.528Z,15.24
2019-05-09T03:33:44.094Z,15.28
2019-05-09T03:36:14.458Z,15.27
2019-05-09T03:38:44.125Z,15.26
2019-05-09T03:41:14.311Z,15.26
2019-05-09T03:43:43.922Z,15.23
2019-05-09T03:46:13.308Z,15.22
2019-05-09T03:48:48.602Z,15.23
2019-05-09T03:51:18.452Z,15.24
2019-05-09T03:53:48.488Z,15.20
2019-05-09T03:56:19.821Z,15.19
2019-05-09T03:58:49.407Z,15.16
2019-05-09T04:01:19.005Z,15.14
2019-05-09T04:03:48.619Z,15.12
2019-05-09T04:06:18.595Z,15.11
2019-05-09T04:08:48.355Z,15.06
2019-05-09T04:11:18.611Z,15.11
2019-05-09T04:13:49.898Z,15.12
2019-05-09T04:16:19.490Z,15.12
2019-05-09T04:18:50.538Z,15.18
2019-05-09T04:21:20.159Z,15.21
2019-05-09T04:23:51.015Z,15.23
2019-05-09T04:26:24.683Z,15.30
2019-05-09T04:28:54.327Z,15.31
2019-05-09T04:31:23.984Z,15.33
2019-05-09T04:33:53.600Z,15.33
2019-05-09T04:36:24.843Z,15.30
2019-05-09T04:38:54.448Z,15.32
2019-05-09T04:41:25.396Z,15.34
2019-05-09T04:43:57.388Z,15.36
2019-05-09T04:46:27.736Z,15.37
2019-05-09T04:49:00.973Z,15.46
2019-05-09T04:51:28.740Z,15.54
2019-05-09T04:53:58.487Z,15.59
2019-05-09T04:56:38.228Z,15.68
2019-05-09T04:59:08.083Z,15.72
2019-05-09T05:01:47.762Z,15.79
2019-05-09T05:04:19.152Z,15.84
2019-05-09T05:06:48.731Z,15.90
2019-05-09T05:09:20.977Z,15.97
2019-05-09T05:11:49.665Z,16.05
2019-05-09T05:14:22.118Z,16.14
2019-05-09T05:16:55.444Z,16.21
2019-05-09T05:19:28.476Z,16.29
2019-05-09T05:21:58.841Z,16.32
2019-05-09T05:24:30.078Z,16.35
2019-05-09T05:26:59.673Z,16.38
2019-05-09T05:29:29.292Z,16.35
2019-05-09T05:32:00.516Z,16.31
2019-05-09T05:34:37.841Z,16.26
2019-05-09T05:37:07.659Z,16.24
2019-05-09T05:39:37.635Z,16.31
2019-05-09T05:42:08.327Z,16.37
2019-05-09T05:44:38.679Z,16.45
2019-05-09T05:47:08.118Z,16.56
2019-05-09T05:49:38.446Z,16.68
2019-05-09T05:52:08.365Z,16.81
2019-05-09T05:54:39.814Z,16.96
2019-05-09T05:57:09.431Z,17.03
2019-05-09T05:59:40.921Z,17.16
2019-05-09T06:02:10.362Z,17.18
2019-05-09T06:04:39.955Z,17.23
2019-05-09T06:07:09.541Z,17.32
2019-05-09T06:09:39.149Z,17.33
2019-05-09T06:12:08.750Z,17.37
2019-05-09T06:14:38.357Z,17.31
2019-05-09T06:17:08.302Z,17.31
2019-05-09T06:19:38.262Z,17.40
2019-05-09T06:22:08.360Z,17.54
2019-05-09T06:24:38.921Z,17.68
2019-05-09T06:27:10.402Z,17.65
2019-05-09T06:29:42.381Z,17.58
2019-05-09T06:32:11.994Z,17.49
2019-05-09T06:34:42.274Z,17.49
2019-05-09T06:37:12.077Z,17.49
2019-05-09T06:39:42.718Z,17.62
2019-05-09T06:42:12.478Z,17.70
2019-05-09T06:44:42.789Z,17.81
2019-05-09T06:47:14.039Z,17.85
2019-05-09T06:49:48.225Z,17.83
2019-05-09T06:52:18.280Z,17.83
2019-05-09T06:54:48.585Z,17.99
2019-05-09T06:57:18.766Z,18.14
2019-05-09T06:59:48.920Z,18.38
2019-05-09T07:02:30.560Z,18.51
2019-05-09T07:05:01.810Z,18.49
2019-05-09T07:07:33.051Z,18.41
2019-05-09T07:10:04.472Z,18.48
2019-05-09T07:12:34.149Z,18.56
2019-05-09T07:15:04.008Z,18.71
2019-05-09T07:17:33.622Z,18.76
2019-05-09T07:20:03.190Z,18.76
2019-05-09T07:22:39.214Z,18.83
2019-05-09T07:25:18.439Z,18.91
2019-05-09T07:27:52.324Z,18.92
2019-05-09T07:30:40.065Z,18.73
2019-05-09T07:33:11.780Z,18.71
2019-05-09T07:35:41.667Z,18.65
2019-05-09T07:38:14.830Z,18.77
2019-05-09T07:40:47.597Z,18.99
2019-05-09T07:43:18.030Z,19.21
2019-05-09T07:46:08.777Z,19.44
2019-05-09T07:48:41.074Z,19.74
2019-05-09T07:51:11.099Z,19.84
2019-05-09T07:53:45.222Z,20.14
2019-05-09T07:56:15.506Z,20.45
2019-05-09T07:58:47.838Z,20.68
2019-05-09T08:01:19.043Z,20.86
2019-05-09T08:03:49.337Z,21.17
2019-05-09T08:06:20.443Z,21.24
2019-05-09T08:08:50.399Z,20.92
2019-05-09T08:11:20.728Z,21.25
2019-05-09T08:13:50.670Z,21.86
2019-05-09T08:16:20.652Z,21.82
2019-05-09T08:18:50.943Z,22.24
2019-05-09T08:21:20.919Z,22.95
2019-05-09T08:23:51.244Z,22.90
2019-05-09T08:26:23.496Z,22.50
2019-05-09T08:28:58.403Z,22.39
2019-05-09T08:31:33.661Z,22.41
2019-05-09T08:34:08.231Z,23.43
2019-05-09T08:36:38.455Z,24.12
2019-05-09T08:39:11.976Z,24.32
2019-05-09T08:41:48.327Z,24.83
2019-05-09T08:44:30.461Z,25.89
2019-05-09T08:47:02.771Z,26.78
2019-05-09T08:49:54.035Z,26.31
2019-05-09T08:52:28.789Z,26.76
2019-05-09T08:55:04.093Z,27.53
2019-05-09T08:57:40.542Z,27.34
2019-05-09T09:00:19.096Z,27.93
2019-05-09T09:03:03.709Z,27.21
2019-05-09T09:05:43.800Z,26.44
2019-05-09T09:08:20.330Z,25.41
2019-05-09T09:10:57.778Z,24.96
2019-05-09T09:13:31.364Z,24.59
2019-05-09T09:16:18.044Z,25.61
2019-05-09T09:18:40.299Z,25.54
2019-05-09T09:21:18.146Z,25.24
2019-05-09T09:23:53.202Z,27.04
2019-05-09T09:26:29.318Z,29.14
2019-05-09T09:29:04.009Z,30.04
2019-05-09T09:31:38.598Z,31.31
2019-05-09T09:34:19.071Z,30.58
2019-05-09T09:37:03.014Z,29.66
2019-05-09T09:39:34.836Z,28.67
2019-05-09T09:42:09.222Z,28.86
2019-05-09T09:44:49.604Z,31.31
2019-05-09T09:47:28.390Z,32.97
2019-05-09T09:50:08.734Z,33.46
2019-05-09T09:52:41.987Z,33.51
2019-05-09T09:55:22.278Z,34.09
2019-05-09T09:58:00.114Z,34.81
2019-05-09T10:01:11.516Z,35.82
2019-05-09T10:03:47.401Z,37.01
2019-05-09T10:06:28.395Z,36.76
2019-05-09T10:09:09.172Z,36.71
2019-05-09T10:11:39.538Z,36.47
2019-05-09T10:14:18.647Z,36.29
2019-05-09T10:17:03.674Z,35.58
2019-05-09T10:19:39.106Z,35.90
2019-05-09T10:22:24.357Z,37.02
2019-05-09T10:24:59.705Z,38.37
2019-05-09T10:27:34.941Z,37.98
2019-05-09T10:30:11.844Z,38.51
2019-05-09T10:32:48.703Z,37.54
2019-05-09T10:35:32.499Z,37.07
2019-05-09T10:38:08.774Z,38.57
2019-05-09T10:40:43.905Z,39.24
2019-05-09T10:43:37.984Z,39.51
2019-05-09T10:46:46.659Z,38.80
2019-05-09T10:49:09.929Z,39.98
2019-05-09T10:51:49.152Z,41.30
2019-05-09T10:54:23.465Z,40.90
2019-05-09T10:56:58.880Z,36.08
2019-05-09T10:59:32.182Z,33.81
2019-05-09T11:02:09.505Z,37.51
2019-05-09T11:04:46.286Z,39.62
2019-05-09T11:07:23.365Z,41.92
2019-05-09T11:10:24.078Z,44.01
2019-05-09T11:12:43.320Z,41.13
2019-05-09T11:15:20.433Z,38.34
2019-05-09T11:17:54.471Z,35.95
2019-05-09T11:20:30.408Z,36.35
2019-05-09T11:23:04.276Z,35.80
2019-05-09T11:25:39.138Z,35.65
2019-05-09T11:28:25.332Z,35.23
2019-05-09T11:31:02.968Z,36.62
2019-05-09T11:33:38.609Z,35.34
2019-05-09T11:36:10.416Z,39.99
2019-05-09T11:38:51.078Z,42.17
2019-05-09T11:41:23.915Z,44.95
2019-05-09T11:43:59.470Z,46.60
2019-05-09T11:46:34.024Z,46.67
2019-05-09T11:49:08.302Z,48.14
2019-05-09T11:51:42.350Z,47.26
2019-05-09T11:54:18.993Z,39.68
2019-05-09T11:56:50.966Z,34.34
2019-05-09T11:59:27.881Z,31.57
2019-05-09T12:02:03.426Z,31.58
2019-05-09T12:04:42.102Z,34.90
2019-05-09T12:07:17.866Z,37.82
2019-05-09T12:09:53.839Z,34.39
2019-05-09T12:12:28.269Z,35.03
2019-05-09T12:15:01.830Z,40.42
2019-05-09T12:17:50.937Z,43.47
2019-05-09T12:20:13.531Z,44.28
2019-05-09T12:22:50.320Z,45.10
2019-05-09T12:25:28.064Z,44.07
2019-05-09T12:28:01.222Z,43.95
2019-05-09T12:30:38.055Z,45.26
2019-05-09T12:33:11.220Z,46.24
2019-05-09T12:35:47.775Z,45.21
2019-05-09T12:38:29.563Z,44.39
2019-05-09T12:41:00.731Z,45.36
2019-05-09T12:43:30.285Z,43.13
2019-05-09T12:46:00.569Z,41.35
2019-05-09T12:48:37.058Z,42.24
2019-05-09T12:51:13.599Z,44.46
2019-05-09T12:53:52.009Z,39.75
2019-05-09T12:56:32.727Z,34.34
2019-05-09T12:59:08.815Z,36.70
2019-05-09T13:01:49.043Z,40.47
2019-05-09T13:04:22.746Z,38.88
2019-05-09T13:06:58.881Z,34.78
2019-05-09T13:09:39.522Z,31.61
2019-05-09T13:12:23.986Z,32.60
2019-05-09T13:14:53.944Z,37.36
2019-05-09T13:17:31.326Z,43.16
2019-05-09T13:20:09.379Z,45.58
2019-05-09T13:25:50.230Z,46.48
2019-05-09T13:28:22.535Z,43.87
2019-05-09T13:31:10.888Z,40.55
2019-05-09T13:33:42.627Z,37.25
2019-05-09T13:36:23.426Z,35.82
2019-05-09T13:39:08.306Z,34.94
2019-05-09T13:41:44.524Z,33.28
2019-05-09T13:44:23.555Z,32.13
2019-05-09T13:47:12.293Z,33.89
2019-05-09T13:49:50.727Z,38.66
2019-05-09T13:52:28.367Z,42.20
2019-05-09T13:55:08.830Z,45.33
2019-05-09T13:57:48.536Z,47.25
2019-05-09T14:00:22.218Z,46.82
2019-05-09T14:02:57.606Z,42.19
2019-05-09T14:05:34.819Z,42.02
2019-05-09T14:08:11.730Z,44.54
2019-05-09T14:10:48.333Z,46.09
2019-05-09T14:13:23.542Z,47.00
2019-05-09T14:16:15.743Z,44.29
2019-05-09T14:18:48.549Z,38.77
2019-05-09T14:21:24.620Z,37.38
2019-05-09T14:24:11.284Z,34.86
2019-05-09T14:26:38.093Z,32.83
2019-05-09T14:29:13.238Z,32.84
2019-05-09T14:31:49.955Z,34.61
2019-05-09T14:34:19.975Z,32.81
2019-05-09T14:36:58.448Z,30.80
2019-05-09T14:39:27.710Z,29.31
2019-05-09T14:41:57.911Z,28.08
2019-05-09T14:44:27.860Z,27.46
2019-05-09T14:46:58.392Z,27.04
2019-05-09T14:49:40.523Z,26.86
2019-05-09T14:52:14.238Z,26.84
2019-05-09T14:54:44.047Z,26.71
2019-05-09T14:57:19.976Z,26.23
2019-05-09T14:59:55.579Z,26.03
2019-05-09T15:02:27.000Z,25.91
2019-05-09T15:04:58.680Z,25.67
2019-05-09T15:07:42.726Z,25.42
2019-05-09T15:10:14.515Z,25.22
2019-05-09T15:12:50.063Z,24.90
2019-05-09T15:15:32.627Z,24.84
2019-05-09T15:18:10.023Z,25.03
2019-05-09T15:20:43.895Z,25.25
2019-05-09T15:23:19.719Z,25.33
2019-05-09T15:25:54.053Z,25.33
2019-05-09T15:28:28.952Z,25.22
2019-05-09T15:31:05.384Z,24.92
2019-05-09T15:33:58.004Z,24.67
2019-05-09T15:36:30.028Z,24.42
2019-05-09T15:39:15.496Z,24.25
2019-05-09T15:41:50.969Z,24.29
2019-05-09T15:44:26.553Z,24.29
2019-05-09T15:47:11.835Z,24.36
2019-05-09T15:49:42.578Z,24.23
2019-05-09T15:52:14.693Z,24.23
2019-05-09T15:54:48.662Z,24.26
2019-05-09T15:57:21.082Z,24.19
2019-05-09T15:59:58.712Z,24.24
2019-05-09T16:02:33.965Z,24.65
2019-05-09T16:05:12.301Z,25.03
2019-05-09T16:07:50.425Z,24.85
2019-05-09T16:10:30.248Z,24.29
2019-05-09T16:13:04.445Z,24.00
2019-05-09T16:15:42.511Z,23.77
2019-05-09T16:18:19.009Z,23.57
2019-05-09T16:20:51.258Z,23.58
2019-05-09T16:23:21.986Z,23.87
2019-05-09T16:26:01.751Z,24.03
2019-05-09T16:28:42.893Z,24.04
2019-05-09T16:31:22.555Z,23.84
2019-05-09T16:33:59.741Z,23.31
2019-05-09T16:36:35.796Z,22.80
2019-05-09T16:39:07.448Z,22.29
2019-05-09T16:41:39.193Z,21.89
2019-05-09T16:44:13.428Z,21.70
2019-05-09T16:46:43.859Z,21.51
2019-05-09T16:49:19.927Z,21.31
2019-05-09T16:51:50.220Z,21.18
2019-05-09T16:54:28.326Z,21.02
2019-05-09T16:57:04.082Z,20.96
2019-05-09T16:59:33.860Z,20.93
2019-05-09T17:02:18.853Z,20.93
2019-05-09T17:04:50.529Z,20.89
2019-05-09T17:07:20.320Z,20.79
2019-05-09T17:09:57.649Z,20.71
2019-05-09T17:12:26.467Z,20.64
2019-05-09T17:15:02.227Z,20.57
2019-05-09T17:17:38.559Z,20.54
2019-05-09T17:20:19.314Z,20.54
2019-05-09T17:23:11.611Z,20.63
2019-05-09T17:25:44.041Z,20.74
2019-05-09T17:28:21.042Z,20.80
2019-05-09T17:30:51.026Z,20.82
2019-05-09T17:33:25.225Z,20.80
2019-05-09T17:36:02.474Z,20.73
2019-05-09T17:38:32.344Z,20.63
2019-05-09T17:41:01.940Z,20.42
2019-05-09T17:43:31.616Z,20.28
2019-05-09T17:46:01.213Z,20.24
2019-05-09T17:48:30.826Z,20.24
2019-05-09T17:51:00.434Z,20.30
2019-05-09T17:53:33.264Z,20.24
2019-05-09T17:56:01.356Z,20.20
2019-05-09T17:58:38.068Z,20.11
2019-05-09T18:01:08.112Z,20.06
2019-05-09T18:03:38.494Z,19.98
2019-05-09T18:06:08.455Z,19.91
2019-05-09T18:08:38.089Z,19.86
2019-05-09T18:11:09.142Z,19.87
2019-05-09T18:13:39.279Z,19.89
2019-05-09T18:16:09.769Z,19.87
2019-05-09T18:18:40.271Z,19.78
2019-05-09T18:21:12.498Z,19.67
2019-05-09T18:23:47.413Z,19.50
2019-05-09T18:26:18.564Z,19.36
2019-05-09T18:28:48.096Z,19.25
2019-05-09T18:31:17.821Z,19.16
2019-05-09T18:33:51.779Z,19.08
2019-05-09T18:36:21.649Z,19.00
2019-05-09T18:38:51.550Z,18.89
2019-05-09T18:41:21.234Z,18.76
2019-05-09T18:43:50.834Z,18.69
2019-05-09T18:46:21.680Z,18.60
2019-05-09T18:48:51.320Z,18.49
2019-05-09T18:51:28.198Z,18.42
2019-05-09T18:53:57.121Z,18.45
2019-05-09T18:56:30.151Z,18.46
2019-05-09T18:58:59.907Z,18.41
2019-05-09T19:01:29.537Z,18.29
2019-05-09T19:03:59.139Z,18.26
2019-05-09T19:06:28.735Z,18.20
2019-05-09T19:08:58.324Z,18.12
2019-05-09T19:11:27.970Z,18.11
2019-05-09T19:13:58.999Z,18.14
2019-05-09T19:16:30.382Z,18.11
2019-05-09T19:19:13.591Z,18.02
2019-05-09T19:21:44.838Z,17.99
2019-05-09T19:24:14.433Z,17.98
2019-05-09T19:26:44.055Z,18.06
2019-05-09T19:29:13.653Z,18.08
2019-05-09T19:31:43.270Z,18.06
2019-05-09T19:34:12.906Z,18.08
2019-05-09T19:36:42.545Z,18.13
2019-05-09T19:39:12.685Z,18.16
2019-05-09T19:41:42.302Z,18.20
2019-05-09T19:44:11.903Z,18.25
2019-05-09T19:46:41.526Z,18.33
2019-05-09T19:49:11.133Z,18.37
2019-05-09T19:51:40.750Z,18.37
2019-05-09T19:54:10.365Z,18.39
2019-05-09T19:56:39.954Z,18.33
2019-05-09T19:59:09.554Z,18.32
2019-05-09T20:01:39.172Z,18.29
2019-05-09T20:04:08.895Z,18.24
2019-05-09T20:06:38.552Z,18.19
2019-05-09T20:09:10.370Z,18.10
2019-05-09T20:12:00.173Z,18.00
2019-05-09T20:14:31.454Z,17.95
2019-05-09T20:17:01.063Z,17.90
2019-05-09T20:19:30.726Z,17.88
2019-05-09T20:22:00.457Z,17.83
2019-05-09T20:24:30.045Z,17.80
2019-05-09T20:26:59.666Z,17.74
2019-05-09T20:29:30.537Z,17.71
2019-05-09T20:32:00.425Z,17.69
2019-05-09T20:34:30.091Z,17.69
2019-05-09T20:36:59.713Z,17.59
2019-05-09T20:39:31.077Z,17.58
2019-05-09T20:42:01.219Z,17.55
2019-05-09T20:44:30.959Z,17.54
2019-05-09T20:47:00.851Z,17.53
2019-05-09T20:49:30.606Z,17.51
2019-05-09T20:52:00.401Z,17.45
2019-05-09T20:54:30.221Z,17.42
2019-05-09T20:56:59.999Z,17.38
2019-05-09T20:59:29.800Z,17.38
2019-05-09T21:01:59.625Z,17.36
2019-05-09T21:04:29.429Z,17.37
2019-05-09T21:06:59.223Z,17.34
2019-05-09T21:09:29.039Z,17.35
2019-05-09T21:11:58.823Z,17.40
2019-05-09T21:14:28.606Z,17.34
2019-05-09T21:16:58.389Z,17.35
2019-05-09T21:19:28.176Z,17.35
2019-05-09T21:21:57.963Z,17.35
2019-05-09T21:24:27.743Z,17.34
2019-05-09T21:26:57.892Z,17.29
2019-05-09T21:29:27.676Z,17.29
2019-05-09T21:31:57.461Z,17.22
2019-05-09T21:34:27.262Z,17.08
2019-05-09T21:36:56.872Z,16.97
2019-05-09T21:39:26.468Z,16.86
2019-05-09T21:41:56.082Z,16.82
2019-05-09T21:44:25.672Z,16.77
2019-05-09T21:46:55.282Z,16.75
2019-05-09T21:49:24.855Z,16.76
2019-05-09T21:51:54.445Z,16.76
2019-05-09T21:54:24.039Z,16.76
2019-05-09T21:56:53.627Z,16.73
2019-05-09T21:59:23.228Z,16.77
2019-05-09T22:01:53.094Z,16.77
2019-05-09T22:04:22.861Z,16.73
2019-05-09T22:06:52.489Z,16.69
2019-05-09T22:09:22.115Z,16.66
2019-05-09T22:11:51.715Z,16.61
2019-05-09T22:14:21.303Z,16.55
2019-05-09T22:16:50.915Z,16.49
2019-05-09T22:19:20.525Z,16.45
2019-05-09T22:21:50.131Z,16.41
2019-05-09T22:24:20.483Z,16.34
2019-05-09T22:26:50.079Z,16.30
2019-05-09T22:29:19.686Z,16.25
2019-05-09T22:31:49.303Z,16.22
2019-05-09T22:34:18.910Z,16.21
2019-05-09T22:36:48.584Z,16.18
2019-05-09T22:39:18.177Z,16.16
2019-05-09T22:41:47.804Z,16.12
2019-05-09T22:44:17.400Z,16.07
2019-05-09T22:46:46.986Z,16.06
2019-05-09T22:49:16.588Z,15.99
2019-05-09T22:51:46.241Z,16.01
2019-05-09T22:54:15.856Z,15.95
2019-05-09T22:56:45.456Z,15.88
2019-05-09T22:59:15.066Z,15.91
2019-05-09T23:01:44.680Z,15.97
2019-05-09T23:04:14.292Z,15.97
2019-05-09T23:06:43.898Z,15.99
2019-05-09T23:09:13.499Z,16.02
2019-05-09T23:11:45.803Z,16.06
2019-05-09T23:14:15.425Z,16.09
2019-05-09T23:16:45.064Z,16.11
2019-05-09T23:19:14.686Z,16.19
2019-05-09T23:21:44.294Z,16.26
2019-05-09T23:24:27.996Z,16.35
2019-05-09T23:26:49.416Z,16.31
2019-05-09T23:29:19.026Z,16.32
2019-05-09T23:31:50.272Z,16.26
2019-05-09T23:34:20.694Z,16.28
2019-05-09T23:36:50.386Z,16.30
2019-05-09T23:39:27.236Z,16.30
2019-05-09T23:41:57.033Z,16.26
2019-05-09T23:44:26.643Z,16.23
2019-05-09T23:46:56.241Z,16.23
2019-05-09T23:49:25.847Z,16.21
2019-05-09T23:51:55.434Z,16.19
2019-05-09T23:54:46.630Z,16.19
2019-05-09T23:57:31.486Z,16.13
